Currently 56°F in San Bernardino, California, USA
56°F
62°F / 55°F
calm
0.00"
Wednesday, April 26, 2017 6:45 AM PDT

San Bernardino, California Weather Summary
Last 36 Hours

Temperature Winds Hourly Humidity Dewpoint
Time Report Norm Report Norm Max Gusts Precip. Rpt. Norm Rpt. Norm Pressure
1Wed 06:45 AM  56.5°F  57°F  calm  1 mph  1 mph  0.00"  69%  71%  46°F  47°F  N/A
Wed 06:00 AM  55.4°F  57°F  calm  1 mph  3 mph  0.00"  71%  71%  46°F  47°F  N/A
3Wed 05:40 AM  55.0°F  57°F  calm  1 mph  none  ----  70%  71%  45°F  47°F  N/A
Wed 05:00 AM  56.4°F  57°F  calm  1 mph  4 mph  0.00"  70%  71%  46°F  48°F  N/A
Wed 04:00 AM  57.0°F  58°F  1 mph SE  1 mph  3 mph  0.00"  68%  70%  46°F  48°F  N/A
Wed 03:00 AM  57.8°F  58°F  calm  1 mph  none  0.00"  65%  69%  46°F  48°F  N/A
Wed 02:00 AM  58.9°F  59°F  calm  1 mph  none  0.00"  61%  67%  45°F  48°F  N/A
Wed 01:00 AM  59.9°F  60°F  calm  1 mph  3 mph  0.00"  58%  65%  45°F  48°F  N/A
2Wed 12:02 AM  61.9°F  61°F  calm  1 mph  4 mph  ----  55%  62%  45°F  48°F  N/A
Wed 12:00 AM  61.7°F  62°F  1 mph SE  1 mph  4 mph  0.00"  55%  62%  45°F  48°F  N/A
Tue 11:00 PM  63.1°F  63°F  calm  2 mph  4 mph  0.00"  50%  60%  43°F  48°F  N/A
Tue 10:00 PM  65.0°F  64°F  calm  2 mph  5 mph  0.00"  47%  57%  43°F  48°F  N/A
Tue 09:00 PM  65.8°F  66°F  2 mph SW  3 mph  8 mph  0.00"  45%  53%  43°F  48°F  N/A
Tue 08:00 PM  67.7°F  68°F  4 mph W  4 mph  9 mph  0.00"  43%  49%  44°F  48°F  N/A
Tue 07:00 PM  69.0°F  71°F  4 mph SW  5 mph  11 mph  0.00"  39%  44%  42°F  47°F  N/A
Tue 06:00 PM  69.7°F  74°F  3 mph W  6 mph  14 mph  0.00"  39%  40%  42°F  47°F  N/A
Tue 05:00 PM  70.7°F  76°F  6 mph SW  5 mph  16 mph  0.00"  40%  36%  44°F  46°F  N/A
Tue 04:00 PM  72.1°F  77°F  6 mph SW  5 mph  11 mph  0.00"  37%  34%  44°F  45°F  N/A
Tue 03:00 PM  71.1°F  77°F  4 mph SW  4 mph  10 mph  0.00"  41%  33%  45°F  45°F  N/A
Tue 02:00 PM  69.2°F  76°F  calm  4 mph  10 mph  0.00"  43%  34%  45°F  45°F  N/A
Tue 01:00 PM  68.1°F  75°F  3 mph N  3 mph  11 mph  0.00"  46%  37%  46°F  45°F  N/A
Tue 12:00 PM  67.0°F  72°F  calm  3 mph  10 mph  0.00"  51%  41%  48°F  46°F  N/A
Tue 11:00 AM  63.7°F  70°F  1 mph SW  3 mph  10 mph  0.00"  60%  47%  49°F  48°F  N/A
Tue 10:00 AM  62.5°F  66°F  3 mph NW  2 mph  8 mph  0.00"  66%  53%  51°F  48°F  N/A
Tue 09:00 AM  60.9°F  63°F  4 mph S  2 mph  5 mph  0.00"  71%  60%  51°F  48°F  N/A
Tue 08:00 AM  59.0°F  60°F  calm  1 mph  3 mph  0.00"  77%  67%  51°F  48°F  N/A
Tue 07:00 AM  57.1°F  57°F  calm  1 mph  3 mph  0.00"  81%  72%  51°F  48°F  N/A
Tue 06:00 AM  56.9°F  57°F  calm  1 mph  1 mph  0.00"  80%  73%  51°F  48°F  N/A
Tue 05:00 AM  56.9°F  57°F  calm  1 mph  3 mph  0.00"  81%  72%  51°F  48°F  N/A
Tue 04:00 AM  56.5°F  58°F  1 mph NW  1 mph  5 mph  0.00"  82%  71%  51°F  48°F  N/A
Tue 03:00 AM  56.6°F  58°F  calm  1 mph  5 mph  0.00"  81%  70%  51°F  48°F  N/A
Tue 02:00 AM  57.1°F  59°F  1 mph SW  1 mph  5 mph  0.00"  78%  68%  50°F  48°F  N/A
Tue 01:00 AM  57.9°F  60°F  calm  1 mph  10 mph  0.00"  76%  65%  50°F  48°F  N/A
Tue 12:00 AM  58.6°F  61°F  3 mph NW  1 mph  10 mph  0.00"  73%  63%  50°F  48°F  N/A
Mon 11:00 PM  59.7°F  63°F  2 mph SW  2 mph  11 mph  0.00"  70%  60%  50°F  48°F  N/A
Mon 10:00 PM  61.2°F  64°F  4 mph NW  2 mph  12 mph  0.00"  71%  57%  52°F  48°F  N/A
Mon 09:00 PM  61.7°F  66°F  4 mph NW  3 mph  12 mph  0.00"  74%  53%  53°F  48°F  N/A
Mon 08:00 PM  63.4°F  68°F  3 mph NW  4 mph  14 mph  0.00"  71%  49%  54°F  48°F  N/A
Mon 07:00 PM  65.9°F  71°F  5 mph SW  5 mph  14 mph  0.00"  63%  44%  53°F  47°F  N/A

  1. Current weather data. No green row appears if the current weather data is also the high or low for the current day.
  2. High temperature for the current day.
  3. Low temperature for the current day.

The San Bernardino, California weather pages are a service of WeatherCurrents.
Copyright ©Wed Apr 26 06:46:08 PDT 2017  WeatherCurrents. All rights reserved. - Submit questions and comments - Privacy Policy

This page automatically refreshes every 10 minutes.